Time;durP1;ratioP1;P1;durP2;ratioP2;P2;SDS_P1;SDS_P2;PMS_P1;PMS_P2;Temp;Humidity;BMP_temperature;BMP_pressure;BME280_temperature;BME280_humidity;BME280_pressure;Samples;Min_cycle;Max_cycle;Signal;HPM_P1;HPM_P2
2021/08/19 00:01:05;;;;;;;13.88;12.38;;;18.10;99.90;;;;;;4976985;28;20090;-78
2021/08/19 00:03:32;;;;;;;15.40;11.35;;;18.20;99.90;;;;;;4977870;28;20117;-80
2021/08/19 00:05:59;;;;;;;16.40;11.55;;;18.10;99.90;;;;;;4977202;28;20058;-79
2021/08/19 00:08:26;;;;;;;18.02;11.60;;;18.10;99.90;;;;;;4978390;28;20070;-78
2021/08/19 00:10:53;;;;;;;15.50;11.73;;;18.10;99.90;;;;;;4977065;28;20059;-78
2021/08/19 00:13:20;;;;;;;19.45;13.35;;;18.00;99.90;;;;;;4976967;28;20058;-79
2021/08/19 00:15:50;;;;;;;17.48;11.95;;;18.00;99.90;;;;;;4976255;28;20061;-78
2021/08/19 00:18:17;;;;;;;18.38;12.15;;;18.00;99.90;;;;;;4976653;28;20055;-79
2021/08/19 00:20:44;;;;;;;16.60;12.93;;;18.00;99.90;;;;;;4976052;28;20472;-79
2021/08/19 00:23:11;;;;;;;16.08;12.43;;;18.00;99.90;;;;;;4976520;28;20083;-80
2021/08/19 00:25:38;;;;;;;17.48;12.55;;;18.00;99.90;;;;;;4977122;28;20054;-79
2021/08/19 00:28:05;;;;;;;16.30;11.88;;;18.00;99.90;;;;;;4976953;28;20142;-81
2021/08/19 00:30:32;;;;;;;16.10;11.52;;;18.00;99.90;;;;;;4977712;28;20055;-81
2021/08/19 00:33:01;;;;;;;16.75;12.75;;;18.10;99.90;;;;;;4977163;28;20050;-79
2021/08/19 00:35:28;;;;;;;14.93;11.82;;;18.10;99.90;;;;;;4978820;28;20465;-81
2021/08/19 00:37:55;;;;;;;15.38;11.90;;;18.10;99.90;;;;;;4978734;28;20054;-80
2021/08/19 00:40:22;;;;;;;18.98;12.77;;;18.10;99.90;;;;;;4978678;28;20054;-80
2021/08/19 00:42:49;;;;;;;16.45;12.38;;;18.10;99.90;;;;;;4979459;28;20058;-80
2021/08/19 00:45:16;;;;;;;15.77;12.55;;;18.10;99.90;;;;;;4979555;28;20082;-81
2021/08/19 00:47:43;;;;;;;17.75;12.55;;;18.10;99.90;;;;;;4979876;28;20059;-81
2021/08/19 00:50:11;;;;;;;19.25;12.70;;;18.10;99.90;;;;;;4978791;28;20067;-80
2021/08/19 00:52:38;;;;;;;17.60;12.60;;;18.10;99.90;;;;;;4980125;28;20073;-80
2021/08/19 00:55:07;;;;;;;20.48;12.98;;;18.10;99.90;;;;;;4984076;28;20071;-78
2021/08/19 00:57:35;;;;;;;16.95;12.55;;;18.00;99.90;;;;;;4987304;28;20082;-79
2021/08/19 01:00:03;;;;;;;18.65;12.88;;;18.00;99.90;;;;;;4983008;28;20062;-80
2021/08/19 01:02:30;;;;;;;18.77;13.98;;;18.00;99.90;;;;;;4977825;28;20059;-80
2021/08/19 01:04:57;;;;;;;17.23;14.25;;;18.00;99.90;;;;;;4977178;28;20055;-79
2021/08/19 01:07:25;;;;;;;22.13;13.88;;;18.00;99.90;;;;;;4977241;28;20495;-80
2021/08/19 01:09:52;;;;;;;19.35;13.20;;;18.10;99.90;;;;;;4976250;28;20059;-79
2021/08/19 01:12:19;;;;;;;20.92;13.82;;;18.10;99.90;;;;;;4975577;28;20089;-79
2021/08/19 01:14:48;;;;;;;22.05;13.48;;;18.10;99.90;;;;;;4975853;28;20082;-79
2021/08/19 01:17:17;;;;;;;18.83;13.68;;;18.10;99.90;;;;;;4979990;28;20121;-79
2021/08/19 01:19:46;;;;;;;16.33;13.35;;;18.00;99.90;;;;;;4985658;28;20058;-79
2021/08/19 01:22:13;;;;;;;15.27;12.38;;;18.00;99.90;;;;;;4985606;28;20125;-80
2021/08/19 01:24:41;;;;;;;17.75;12.93;;;18.00;99.90;;;;;;4985384;28;20471;-80
2021/08/19 01:27:13;;;;;;;18.45;13.02;;;18.00;99.90;;;;;;4981075;28;20051;-79
2021/08/19 01:29:43;;;;;;;18.75;13.90;;;18.00;99.90;;;;;;4981847;28;20085;-80
2021/08/19 01:32:10;;;;;;;17.95;13.20;;;18.00;99.90;;;;;;4983755;28;20086;-80
2021/08/19 01:34:38;;;;;;;18.77;12.93;;;18.00;99.90;;;;;;4982818;28;20062;-80
2021/08/19 01:37:06;;;;;;;17.15;13.05;;;18.00;99.90;;;;;;4982978;28;20484;-79
2021/08/19 01:39:33;;;;;;;16.00;12.18;;;18.00;99.90;;;;;;4987957;28;20055;-78
2021/08/19 01:42:00;;;;;;;17.48;12.15;;;18.00;99.90;;;;;;4986228;28;20105;-77
2021/08/19 01:44:28;;;;;;;20.50;12.75;;;18.00;99.90;;;;;;4984074;28;20062;-77
2021/08/19 01:46:56;;;;;;;21.10;12.10;;;18.00;99.90;;;;;;4983647;28;20069;-78
2021/08/19 01:49:23;;;;;;;18.38;12.10;;;18.00;99.90;;;;;;4979736;28;20574;-79
2021/08/19 01:51:51;;;;;;;16.60;11.73;;;18.00;99.90;;;;;;4980460;28;20470;-78
2021/08/19 01:54:18;;;;;;;13.20;11.45;;;18.00;99.90;;;;;;4979411;28;20050;-80
2021/08/19 01:56:45;;;;;;;16.65;12.27;;;18.00;99.90;;;;;;4979251;28;20492;-79
2021/08/19 01:59:13;;;;;;;18.50;11.77;;;18.10;99.90;;;;;;4979859;28;20070;-78
2021/08/19 02:01:41;;;;;;;16.50;11.98;;;18.10;99.90;;;;;;4980854;28;20109;-79
2021/08/19 02:04:08;;;;;;;19.80;12.30;;;18.00;99.90;;;;;;4981269;28;20117;-80
2021/08/19 02:06:35;;;;;;;17.00;11.18;;;18.00;99.90;;;;;;4980840;28;20097;-79
2021/08/19 02:09:02;;;;;;;20.23;11.82;;;18.00;99.90;;;;;;4981732;28;20047;-79
2021/08/19 02:11:29;;;;;;;19.48;11.80;;;18.00;99.90;;;;;;4981064;28;20065;-81
2021/08/19 02:13:56;;;;;;;13.70;10.73;;;18.00;99.90;;;;;;4980328;28;20055;-80
2021/08/19 02:16:23;;;;;;;18.75;11.43;;;18.00;99.90;;;;;;4980406;28;20043;-80
2021/08/19 02:18:52;;;;;;;16.98;11.45;;;18.00;99.90;;;;;;4979937;28;20141;-82
2021/08/19 02:21:18;;;;;;;17.33;10.95;;;18.00;99.90;;;;;;4982050;28;20054;-81
2021/08/19 02:28:50;;;;;;;18.80;11.25;;;18.10;99.90;;;;;;5026516;28;20049;-80
2021/08/19 02:31:17;;;;;;;14.07;10.45;;;18.10;99.90;;;;;;5021335;28;20080;-83
2021/08/19 02:33:44;;;;;;;16.17;10.48;;;18.10;99.90;;;;;;5021979;28;20477;-77
2021/08/19 02:36:12;;;;;;;16.77;10.45;;;18.10;99.90;;;;;;5020810;28;20077;-79
2021/08/19 02:38:39;;;;;;;15.43;10.73;;;18.10;99.90;;;;;;5021367;28;20096;-79
2021/08/19 02:43:42;;;;;;;16.98;10.20;;;18.10;99.90;;;;;;4995535;28;20057;-79
2021/08/19 02:46:09;;;;;;;16.98;10.88;;;18.10;99.90;;;;;;4996882;28;20054;-79
2021/08/19 02:48:36;;;;;;;13.82;10.38;;;18.00;99.90;;;;;;4996194;28;20065;-78
2021/08/19 02:51:03;;;;;;;14.73;10.55;;;18.10;99.90;;;;;;4996522;28;20081;-78
2021/08/19 02:53:32;;;;;;;21.38;11.52;;;18.10;99.90;;;;;;4995873;28;20117;-78
2021/08/19 02:55:58;;;;;;;13.48;9.95;;;18.10;99.90;;;;;;4997642;28;20046;-79
2021/08/19 02:58:25;;;;;;;14.55;10.38;;;18.10;99.90;;;;;;4998668;28;20150;-80
2021/08/19 03:00:52;;;;;;;15.05;10.25;;;18.10;99.90;;;;;;4997495;28;20070;-80
2021/08/19 03:03:19;;;;;;;14.65;10.18;;;18.10;99.90;;;;;;4997647;28;20125;-80
2021/08/19 03:05:46;;;;;;;15.18;10.52;;;18.00;99.90;;;;;;4998421;28;20133;-78
2021/08/19 03:08:13;;;;;;;13.95;10.00;;;18.00;99.90;;;;;;4998292;28;20085;-80
2021/08/19 03:10:41;;;;;;;15.10;9.65;;;18.00;99.90;;;;;;4997765;28;20157;-79
2021/08/19 03:13:08;;;;;;;13.18;10.20;;;18.00;99.90;;;;;;4996204;28;20082;-79
2021/08/19 03:15:35;;;;;;;15.05;9.93;;;18.00;99.90;;;;;;4994978;28;20076;-79
2021/08/19 03:18:01;;;;;;;11.98;9.45;;;18.00;99.90;;;;;;4995527;28;20585;-78
2021/08/19 03:20:28;;;;;;;13.15;9.55;;;18.00;99.90;;;;;;4995950;28;20133;-80
2021/08/19 03:22:55;;;;;;;15.00;9.93;;;18.00;99.90;;;;;;4996523;28;20137;-79
2021/08/19 03:25:22;;;;;;;12.43;9.85;;;18.00;99.90;;;;;;4996131;28;20090;-79
2021/08/19 03:27:50;;;;;;;14.40;10.20;;;18.00;99.90;;;;;;4995575;28;20450;-79
2021/08/19 03:30:17;;;;;;;13.98;10.43;;;18.00;99.90;;;;;;4997228;28;20112;-78
2021/08/19 03:32:44;;;;;;;13.52;10.05;;;18.00;99.90;;;;;;4996633;28;20137;-78
2021/08/19 03:35:12;;;;;;;12.93;9.73;;;18.00;99.90;;;;;;4995728;28;20109;-79
2021/08/19 03:37:40;;;;;;;14.60;10.48;;;18.00;99.90;;;;;;4995927;28;20062;-79
2021/08/19 03:40:08;;;;;;;13.70;9.77;;;18.00;99.90;;;;;;4995187;28;20046;-79
2021/08/19 03:42:37;;;;;;;15.05;10.35;;;18.00;99.90;;;;;;4994734;28;20085;-78
2021/08/19 03:45:08;;;;;;;12.55;9.57;;;17.90;99.90;;;;;;4994535;28;20062;-77
2021/08/19 03:47:35;;;;;;;13.02;10.05;;;17.90;99.90;;;;;;4994306;28;20057;-79
2021/08/19 03:50:02;;;;;;;12.77;9.50;;;18.00;99.90;;;;;;4994156;28;20137;-78
2021/08/19 03:52:28;;;;;;;13.18;9.32;;;18.00;99.90;;;;;;4996615;28;20438;-81
2021/08/19 03:54:55;;;;;;;13.18;9.35;;;18.00;99.90;;;;;;4997317;28;20137;-80
2021/08/19 03:57:22;;;;;;;12.40;9.30;;;18.00;99.90;;;;;;4997974;28;20058;-80
2021/08/19 03:59:49;;;;;;;14.68;9.88;;;18.00;99.90;;;;;;4997573;28;20137;-80
2021/08/19 04:02:17;;;;;;;18.35;10.18;;;18.00;99.90;;;;;;4997564;28;20134;-80
2021/08/19 04:04:44;;;;;;;10.88;9.40;;;17.90;99.90;;;;;;4995510;28;20085;-78
2021/08/19 04:07:11;;;;;;;13.95;9.70;;;17.90;99.90;;;;;;4996711;28;20060;-79
2021/08/19 04:09:38;;;;;;;12.15;9.43;;;17.90;99.90;;;;;;4996061;28;20062;-79
2021/08/19 04:12:05;;;;;;;14.48;9.93;;;17.90;99.90;;;;;;4997126;28;20556;-79
2021/08/19 04:14:32;;;;;;;12.60;9.90;;;17.90;99.90;;;;;;4996311;28;20137;-78
2021/08/19 04:16:59;;;;;;;15.20;10.02;;;17.90;99.90;;;;;;4996727;28;20118;-78
2021/08/19 04:19:27;;;;;;;12.75;9.27;;;17.90;99.90;;;;;;4996015;28;20425;-78
2021/08/19 04:21:54;;;;;;;16.35;10.43;;;17.90;99.90;;;;;;4995624;28;20172;-79
2021/08/19 04:24:21;;;;;;;12.98;9.45;;;17.90;99.90;;;;;;4996879;28;20198;-78
2021/08/19 04:26:48;;;;;;;15.00;9.85;;;17.90;99.90;;;;;;4997612;28;20175;-79
2021/08/19 04:29:15;;;;;;;15.48;9.85;;;17.90;99.90;;;;;;4998217;28;20475;-79
2021/08/19 04:31:41;;;;;;;12.90;9.60;;;18.00;99.90;;;;;;4998504;28;20133;-81
2021/08/19 04:34:08;;;;;;;14.52;9.75;;;18.00;99.90;;;;;;5001219;28;20133;-80
2021/08/19 04:36:37;;;;;;;17.27;9.85;;;18.00;99.90;;;;;;5001672;28;20110;-81
2021/08/19 04:39:04;;;;;;;14.82;10.00;;;18.00;99.90;;;;;;5001606;28;20101;-81
2021/08/19 04:41:31;;;;;;;14.50;10.13;;;18.00;99.90;;;;;;5001407;28;20145;-81
2021/08/19 04:43:58;;;;;;;16.92;10.77;;;18.00;99.90;;;;;;5000348;28;20055;-81
2021/08/19 04:46:24;;;;;;;16.20;10.20;;;18.00;99.90;;;;;;4999293;28;20073;-80
2021/08/19 04:48:51;;;;;;;13.60;11.30;;;18.00;99.90;;;;;;4999077;28;20129;-81
2021/08/19 04:51:18;;;;;;;14.88;11.50;;;18.00;99.90;;;;;;5001254;28;20089;-81
2021/08/19 04:53:46;;;;;;;14.45;11.68;;;18.00;99.90;;;;;;5004862;28;20085;-82
2021/08/19 04:56:13;;;;;;;16.65;10.60;;;18.00;99.90;;;;;;5009870;28;20054;-80
2021/08/19 04:58:40;;;;;;;16.85;11.00;;;18.00;99.90;;;;;;5011353;28;20081;-80
2021/08/19 05:01:07;;;;;;;14.27;10.85;;;18.00;99.90;;;;;;5008292;28;20118;-79
2021/08/19 05:03:34;;;;;;;16.95;11.40;;;18.00;99.90;;;;;;5005159;28;20168;-80
2021/08/19 05:06:01;;;;;;;13.65;11.43;;;18.00;99.90;;;;;;5007978;28;20085;-79
2021/08/19 05:08:27;;;;;;;13.48;10.85;;;18.00;99.90;;;;;;5014083;28;20493;-80
2021/08/19 05:10:55;;;;;;;15.93;11.30;;;18.00;99.90;;;;;;5014509;28;20050;-81
2021/08/19 05:13:23;;;;;;;14.85;10.55;;;18.00;99.90;;;;;;5012614;28;20089;-80
2021/08/19 05:15:50;;;;;;;15.77;10.27;;;18.00;99.90;;;;;;5013876;28;20065;-79
2021/08/19 05:18:17;;;;;;;19.50;9.93;;;18.00;99.90;;;;;;5009739;28;20114;-79
2021/08/19 05:20:44;;;;;;;13.38;9.82;;;18.10;99.90;;;;;;5009592;28;20073;-78
2021/08/19 05:23:11;;;;;;;15.80;10.32;;;18.10;99.90;;;;;;5008322;28;20130;-80
2021/08/19 05:25:37;;;;;;;15.88;9.93;;;18.10;99.90;;;;;;5006665;28;20133;-77
2021/08/19 05:28:06;;;;;;;16.92;9.57;;;18.10;99.90;;;;;;5006362;28;20110;-79
2021/08/19 05:30:32;;;;;;;12.50;9.75;;;18.10;99.90;;;;;;5009826;28;20457;-76
2021/08/19 05:32:59;;;;;;;16.63;10.20;;;18.20;99.90;;;;;;4998844;28;20050;-77
2021/08/19 05:35:26;;;;;;;15.25;9.77;;;18.20;99.90;;;;;;4997395;28;20217;-79
2021/08/19 05:37:53;;;;;;;14.38;9.82;;;18.20;99.90;;;;;;4997041;28;20137;-79
2021/08/19 05:40:20;;;;;;;12.90;9.85;;;18.20;99.90;;;;;;4997168;28;20595;-78
2021/08/19 05:42:47;;;;;;;17.33;9.65;;;18.20;99.90;;;;;;4996178;28;20046;-78
2021/08/19 05:45:15;;;;;;;12.68;9.30;;;18.10;99.90;;;;;;4985777;28;20054;-79
2021/08/19 05:47:42;;;;;;;13.32;9.60;;;18.10;99.90;;;;;;4991589;28;20085;-79
2021/08/19 05:50:11;;;;;;;15.48;9.50;;;18.20;99.90;;;;;;4998065;28;20129;-79
2021/08/19 05:52:38;;;;;;;12.98;9.65;;;18.10;99.90;;;;;;4997942;28;20114;-80
2021/08/19 05:55:07;;;;;;;14.15;9.13;;;18.10;99.90;;;;;;4998404;28;20072;-79
2021/08/19 05:57:34;;;;;;;16.02;9.93;;;18.10;99.90;;;;;;5000809;28;20074;-79
2021/08/19 06:00:00;;;;;;;14.02;9.43;;;18.10;99.90;;;;;;4998421;28;20458;-79
2021/08/19 06:02:29;;;;;;;18.10;9.57;;;18.10;99.90;;;;;;4996931;28;20117;-80
2021/08/19 06:04:55;;;;;;;17.85;10.15;;;18.10;99.90;;;;;;4994853;28;20054;-80
2021/08/19 06:07:22;;;;;;;16.63;10.68;;;18.10;99.90;;;;;;4998028;28;20065;-80
2021/08/19 06:09:49;;;;;;;18.15;11.48;;;18.10;99.90;;;;;;4999403;28;20081;-80
2021/08/19 06:12:16;;;;;;;14.05;10.52;;;18.10;99.90;;;;;;5000135;28;20050;-80
2021/08/19 06:14:43;;;;;;;13.15;11.00;;;18.10;99.90;;;;;;4997641;28;20109;-82
2021/08/19 06:17:10;;;;;;;19.73;11.20;;;18.10;99.90;;;;;;4998210;28;20462;-79
2021/08/19 06:19:38;;;;;;;12.13;9.73;;;18.00;99.90;;;;;;4999630;28;20129;-78
2021/08/19 06:22:05;;;;;;;16.65;10.23;;;18.10;99.90;;;;;;4999745;28;20141;-80
2021/08/19 06:24:32;;;;;;;14.88;10.05;;;18.10;99.90;;;;;;4997607;28;20540;-79
2021/08/19 06:26:59;;;;;;;14.27;10.60;;;18.10;99.90;;;;;;4996439;28;20060;-79
2021/08/19 06:29:26;;;;;;;15.48;10.15;;;18.10;99.90;;;;;;4996814;28;20232;-79
2021/08/19 06:31:53;;;;;;;16.73;10.55;;;18.00;99.90;;;;;;4997426;28;20097;-81
2021/08/19 06:34:20;;;;;;;13.80;11.25;;;18.10;99.90;;;;;;4997933;28;20133;-80
2021/08/19 06:36:48;;;;;;;13.02;10.05;;;18.10;99.90;;;;;;4999318;28;20145;-82
2021/08/19 06:39:15;;;;;;;13.90;10.73;;;18.00;99.90;;;;;;4999400;28;20101;-83
2021/08/19 06:41:42;;;;;;;16.15;10.00;;;18.10;99.90;;;;;;4998550;28;20078;-83
2021/08/19 06:44:09;;;;;;;14.23;12.02;;;18.00;99.90;;;;;;4998893;28;20054;-83
2021/08/19 06:46:36;;;;;;;16.67;12.18;;;18.10;99.90;;;;;;4999081;28;20078;-84
2021/08/19 06:49:03;;;;;;;13.93;11.43;;;18.00;99.90;;;;;;5001144;28;20540;-84
2021/08/19 06:51:30;;;;;;;17.20;11.00;;;18.00;99.90;;;;;;5000774;28;20109;-83
2021/08/19 06:53:59;;;;;;;13.13;10.85;;;17.90;99.90;;;;;;4999863;28;20053;-83
2021/08/19 06:56:27;;;;;;;14.70;11.68;;;18.00;99.90;;;;;;4998256;28;20589;-80
2021/08/19 06:58:54;;;;;;;16.98;12.45;;;18.00;99.90;;;;;;5000196;28;20106;-82
2021/08/19 07:01:21;;;;;;;14.60;11.93;;;18.00;99.90;;;;;;4999117;28;20031;-81
2021/08/19 07:03:48;;;;;;;17.42;12.50;;;18.10;99.90;;;;;;4999322;28;20489;-81
2021/08/19 07:06:15;;;;;;;18.85;11.88;;;18.10;99.90;;;;;;4999934;28;20138;-82
2021/08/19 07:08:43;;;;;;;15.27;11.88;;;18.10;99.90;;;;;;4999045;28;20057;-82
2021/08/19 07:11:12;;;;;;;15.68;11.90;;;18.20;99.90;;;;;;5000374;28;20556;-82
2021/08/19 07:13:40;;;;;;;12.93;11.02;;;18.10;99.90;;;;;;4999104;28;20089;-82
2021/08/19 07:16:07;;;;;;;17.15;12.63;;;18.20;99.90;;;;;;4999451;28;20077;-81
2021/08/19 07:18:34;;;;;;;15.95;11.90;;;18.20;99.90;;;;;;4999199;28;20050;-81
2021/08/19 07:21:01;;;;;;;14.68;11.63;;;18.30;99.90;;;;;;4999450;28;20077;-82
2021/08/19 07:23:28;;;;;;;15.95;12.15;;;18.30;99.90;;;;;;5000159;28;20137;-81
2021/08/19 07:25:55;;;;;;;13.90;11.07;;;18.40;99.90;;;;;;5000737;28;20109;-82
2021/08/19 07:28:24;;;;;;;15.93;11.55;;;18.50;99.90;;;;;;5001134;28;20148;-84
2021/08/19 07:30:51;;;;;;;14.80;11.13;;;18.60;99.90;;;;;;5001654;28;20065;-82
2021/08/19 07:33:19;;;;;;;17.05;11.63;;;18.60;99.90;;;;;;5001060;28;20074;-82
2021/08/19 07:35:49;;;;;;;15.43;11.55;;;18.60;99.90;;;;;;5001007;28;20054;-82
2021/08/19 07:38:18;;;;;;;14.25;10.95;;;18.60;99.90;;;;;;5001155;28;20051;-82
2021/08/19 07:40:46;;;;;;;14.98;11.02;;;18.60;99.90;;;;;;5000061;28;20047;-81
2021/08/19 07:43:13;;;;;;;14.43;11.23;;;18.60;99.90;;;;;;5001928;28;20051;-82
2021/08/19 07:45:42;;;;;;;14.68;10.35;;;18.60;99.90;;;;;;5001217;28;20065;-81
2021/08/19 07:48:09;;;;;;;16.85;11.10;;;18.60;99.90;;;;;;5001296;28;20106;-81
2021/08/19 07:50:37;;;;;;;13.35;10.68;;;18.60;99.90;;;;;;5000135;28;20062;-81
2021/08/19 07:53:04;;;;;;;16.80;12.15;;;18.60;99.90;;;;;;4998278;28;20073;-82
2021/08/19 07:55:32;;;;;;;16.33;11.80;;;18.60;99.90;;;;;;4999184;28;20093;-82
2021/08/19 07:57:58;;;;;;;16.77;11.57;;;18.70;99.90;;;;;;4999923;28;20133;-81
2021/08/19 08:00:27;;;;;;;14.82;11.18;;;18.80;99.90;;;;;;4999577;28;20076;-82
2021/08/19 08:02:56;;;;;;;16.20;11.82;;;18.90;99.90;;;;;;4998364;28;20138;-81
2021/08/19 08:05:24;;;;;;;19.17;11.95;;;18.80;99.90;;;;;;4997995;28;20217;-81
2021/08/19 08:07:52;;;;;;;16.10;12.07;;;18.90;99.90;;;;;;4998212;28;20133;-82
2021/08/19 08:10:19;;;;;;;21.45;12.25;;;18.90;99.90;;;;;;4999044;28;20595;-81
2021/08/19 08:12:47;;;;;;;15.23;11.43;;;19.00;99.90;;;;;;4999424;28;20172;-82
2021/08/19 08:15:14;;;;;;;15.00;11.10;;;19.10;99.90;;;;;;4998431;28;20133;-81
2021/08/19 08:17:41;;;;;;;16.30;11.85;;;19.20;99.90;;;;;;4999265;28;20068;-82
2021/08/19 08:20:11;;;;;;;13.02;11.00;;;19.30;99.90;;;;;;4998599;28;20050;-84
2021/08/19 08:22:40;;;;;;;14.05;11.25;;;19.40;99.90;;;;;;4998613;28;20081;-82
2021/08/19 08:25:08;;;;;;;14.15;10.88;;;19.50;99.90;;;;;;4998112;28;20056;-82
2021/08/19 08:27:35;;;;;;;13.05;10.13;;;19.70;99.90;;;;;;4998596;28;20050;-82
2021/08/19 08:30:03;;;;;;;12.30;9.63;;;19.80;99.90;;;;;;4998332;28;20069;-83
2021/08/19 08:32:30;;;;;;;13.88;9.63;;;19.70;99.90;;;;;;4999236;28;20058;-82
2021/08/19 08:34:57;;;;;;;14.98;9.68;;;19.70;99.90;;;;;;4999774;28;20114;-81
2021/08/19 08:37:26;;;;;;;15.18;9.23;;;19.70;99.90;;;;;;4998304;28;20054;-81
2021/08/19 08:39:53;;;;;;;17.25;9.40;;;19.70;99.90;;;;;;4998353;28;20515;-81
2021/08/19 08:42:20;;;;;;;11.88;8.65;;;19.80;99.90;;;;;;5010355;23;20505;-80
2021/08/19 08:44:47;;;;;;;11.02;8.10;;;19.90;99.90;;;;;;4991270;28;20079;-82
2021/08/19 08:47:18;;;;;;;10.35;8.43;;;19.80;99.90;;;;;;4973214;28;20144;-78
2021/08/19 08:49:45;;;;;;;13.38;8.57;;;19.80;99.90;;;;;;4972939;28;20054;-78
2021/08/19 08:52:12;;;;;;;11.15;8.68;;;20.00;99.90;;;;;;4974626;28;20463;-79
2021/08/19 08:54:40;;;;;;;13.02;8.75;;;20.10;99.90;;;;;;4973084;28;20050;-77
2021/08/19 08:57:07;;;;;;;13.48;8.73;;;20.20;99.90;;;;;;4973318;28;20098;-78
2021/08/19 08:59:34;;;;;;;10.43;8.32;;;20.20;99.90;;;;;;4973079;28;20521;-78
2021/08/19 09:02:01;;;;;;;10.45;7.82;;;20.30;99.90;;;;;;4972345;28;20134;-76
2021/08/19 09:04:28;;;;;;;10.75;8.00;;;20.30;99.90;;;;;;4972416;28;20426;-77
2021/08/19 09:07:04;;;;;;;12.73;8.65;;;20.40;99.90;;;;;;4972644;28;20516;-77
2021/08/19 09:09:32;;;;;;;10.18;8.23;;;20.40;99.90;;;;;;4972065;28;20053;-77
2021/08/19 09:12:04;;;;;;;9.10;7.82;;;20.80;99.90;;;;;;4972142;28;20051;-77
2021/08/19 09:14:32;;;;;;;11.45;8.30;;;21.30;99.90;;;;;;4971884;28;20055;-78
2021/08/19 09:17:00;;;;;;;11.82;8.60;;;21.30;99.90;;;;;;4972123;28;20051;-78
2021/08/19 09:19:29;;;;;;;9.52;7.65;;;21.20;99.90;;;;;;4972194;28;20534;-77
2021/08/19 09:21:58;;;;;;;10.45;7.57;;;21.00;99.90;;;;;;4971957;28;20050;-75
2021/08/19 09:24:26;;;;;;;10.93;9.07;;;20.70;99.90;;;;;;4971694;28;20480;-77
2021/08/19 09:26:55;;;;;;;10.23;7.78;;;20.50;99.90;;;;;;4971708;28;20570;-77
2021/08/19 09:29:28;;;;;;;11.98;8.10;;;20.30;99.90;;;;;;4972505;28;20133;-77
2021/08/19 09:31:57;;;;;;;11.82;9.38;;;20.30;99.90;;;;;;4972191;28;20129;-76
2021/08/19 09:34:24;;;;;;;11.55;9.00;;;20.20;99.90;;;;;;4971573;28;20070;-77
2021/08/19 09:37:02;;;;;;;15.40;10.20;;;20.20;99.90;;;;;;4971896;28;20059;-77
2021/08/19 09:39:36;;;;;;;13.27;10.05;;;20.20;99.90;;;;;;4975210;28;20137;-76
2021/08/19 09:42:03;;;;;;;14.95;9.55;;;20.20;99.90;;;;;;4975184;28;20451;-77
2021/08/19 09:44:36;;;;;;;10.90;8.85;;;20.10;99.90;;;;;;4975153;28;20141;-77
2021/08/19 09:47:03;;;;;;;;;;;20.10;99.90;;;;;;4975744;28;20437;-78
2021/08/19 09:49:33;;;;;;;13.32;8.68;;;20.10;99.90;;;;;;4975218;28;19926;-77
2021/08/19 09:52:06;;;;;;;10.63;8.05;;;20.10;99.90;;;;;;4975271;28;20146;-77
2021/08/19 09:54:34;;;;;;;10.05;7.40;;;20.10;99.90;;;;;;4975134;28;20145;-76
2021/08/19 09:57:02;;;;;;;11.70;7.80;;;20.00;99.90;;;;;;4975256;28;20473;-76
2021/08/19 09:59:34;;;;;;;9.60;8.13;;;19.90;99.90;;;;;;4975151;28;20057;-77
2021/08/19 10:02:04;;;;;;;9.75;7.13;;;19.90;99.90;;;;;;4974698;28;20043;-77
2021/08/19 10:04:31;;;;;;;9.30;6.93;;;19.90;99.90;;;;;;4974528;28;20142;-77
2021/08/19 10:06:59;;;;;;;11.82;8.27;;;19.80;99.90;;;;;;4975170;28;20501;-77
2021/08/19 10:09:26;;;;;;;10.80;7.80;;;19.70;99.90;;;;;;4974620;28;20129;-77
2021/08/19 10:11:55;;;;;;;12.35;7.90;;;19.70;99.90;;;;;;4974770;28;20130;-76
2021/08/19 10:14:23;;;;;;;10.43;7.90;;;19.70;99.90;;;;;;4974329;28;20142;-77
2021/08/19 10:16:51;;;;;;;11.07;8.90;;;19.90;99.90;;;;;;4974680;28;20593;-75
2021/08/19 10:19:24;;;;;;;9.52;7.93;;;19.80;99.90;;;;;;4974676;28;20153;-77
2021/08/19 10:21:57;;;;;;;9.68;7.07;;;19.80;99.90;;;;;;4974529;28;20051;-77
2021/08/19 10:24:30;;;;;;;15.68;7.88;;;20.00;99.90;;;;;;4974290;28;20434;-77
2021/08/19 10:27:13;;;;;;;10.13;7.70;;;20.20;99.90;;;;;;4974383;28;20137;-77
2021/08/19 10:29:45;;;;;;;9.13;7.60;;;20.50;99.90;;;;;;4974411;28;20055;-77
2021/08/19 10:32:25;;;;;;;7.80;6.43;;;20.70;99.90;;;;;;4974453;28;20055;-77
2021/08/19 10:35:12;;;;;;;8.60;6.72;;;20.70;99.90;;;;;;4974121;28;20054;-77
2021/08/19 10:38:02;;;;;;;7.88;6.63;;;20.80;99.90;;;;;;4974579;28;20137;-77
2021/08/19 10:40:37;;;;;;;10.25;7.10;;;20.80;99.90;;;;;;4975651;28;20235;-79
2021/08/19 10:43:44;;;;;;;12.40;7.65;;;20.90;99.90;;;;;;4974511;28;20051;-78
2021/08/19 10:46:15;;;;;;;9.38;7.43;;;21.00;99.90;;;;;;4974085;28;20053;-78
2021/08/19 10:48:53;;;;;;;8.52;6.95;;;21.10;99.90;;;;;;4974275;28;20142;-77
2021/08/19 10:51:21;;;;;;;10.57;6.70;;;21.00;99.90;;;;;;4974247;28;20051;-78
2021/08/19 10:53:48;;;;;;;11.88;7.07;;;20.90;99.90;;;;;;4974021;28;20055;-78
2021/08/19 10:56:41;;;;;;;9.48;6.95;;;20.80;99.90;;;;;;4974065;28;20141;-78
2021/08/19 10:59:31;;;;;;;8.00;6.85;;;20.60;99.90;;;;;;4974108;28;20050;-79
2021/08/19 11:01:59;;;;;;;7.88;6.38;;;20.40;99.90;;;;;;4973766;28;20047;-78
2021/08/19 11:04:41;;;;;;;8.50;6.60;;;20.30;99.90;;;;;;4973566;28;20046;-78
2021/08/19 11:07:10;;;;;;;;;;;20.20;99.90;;;;;;4972781;28;20047;-78
2021/08/19 11:09:37;;;;;;;9.18;6.88;;;20.20;99.90;;;;;;4973491;28;20004;-78
2021/08/19 11:12:05;;;;;;;10.88;7.60;;;20.20;99.90;;;;;;4973477;28;20085;-78
2021/08/19 11:14:32;;;;;;;15.68;9.60;;;20.20;99.90;;;;;;4973255;28;20142;-78
2021/08/19 11:17:01;;;;;;;13.07;9.60;;;20.20;99.90;;;;;;4974300;28;20078;-77
2021/08/19 11:19:30;;;;;;;18.48;10.70;;;20.30;99.90;;;;;;4973731;28;20475;-76
2021/08/19 11:21:58;;;;;;;30.33;10.15;;;20.30;99.90;;;;;;4973363;28;20134;-77
2021/08/19 11:24:28;;;;;;;13.25;8.88;;;20.30;99.90;;;;;;4973369;28;20109;-77
2021/08/19 11:27:12;;;;;;;12.80;8.70;;;20.30;99.90;;;;;;4973788;28;20133;-77
2021/08/19 11:29:40;;;;;;;11.65;7.00;;;20.50;99.90;;;;;;4973511;28;20051;-76
2021/08/19 11:32:11;;;;;;;9.18;5.97;;;20.70;99.90;;;;;;4973685;28;20078;-77
2021/08/19 11:34:40;;;;;;;7.35;5.47;;;20.80;99.90;;;;;;4973351;28;20054;-76
2021/08/19 11:37:07;;;;;;;6.40;5.05;;;20.90;99.90;;;;;;4973915;28;20055;-78
2021/08/19 11:39:35;;;;;;;5.53;3.90;;;20.80;99.90;;;;;;4976365;28;20139;-77
2021/08/19 11:42:04;;;;;;;4.05;3.47;;;20.80;99.90;;;;;;4972952;28;20133;-77
2021/08/19 11:44:32;;;;;;;5.63;3.50;;;20.50;99.90;;;;;;4972992;28;20116;-76
2021/08/19 11:47:01;;;;;;;3.20;2.83;;;20.50;99.90;;;;;;4974088;28;20152;-76
2021/08/19 11:49:28;;;;;;;4.57;2.88;;;20.60;99.90;;;;;;4973312;28;20478;-79
2021/08/19 11:52:06;;;;;;;3.22;2.58;;;20.80;99.90;;;;;;4973452;28;20126;-76
2021/08/19 11:54:46;;;;;;;3.28;2.95;;;21.20;99.90;;;;;;4972887;28;20054;-78
2021/08/19 11:57:23;;;;;;;3.63;2.65;;;21.40;99.90;;;;;;4973496;28;20061;-78
2021/08/19 11:59:58;;;;;;;4.32;2.95;;;21.60;99.90;;;;;;4973178;28;20057;-77
2021/08/19 12:02:25;;;;;;;5.25;3.40;;;21.80;99.90;;;;;;4972274;28;20101;-78
2021/08/19 12:05:02;;;;;;;5.57;3.47;;;22.00;99.90;;;;;;4972417;28;20137;-78
2021/08/19 12:07:29;;;;;;;4.03;3.30;;;22.20;99.90;;;;;;4973061;28;20054;-77
2021/08/19 12:09:58;;;;;;;5.55;3.50;;;22.40;99.90;;;;;;4972422;28;20490;-78
2021/08/19 12:12:27;;;;;;;6.13;3.90;;;22.40;99.90;;;;;;4973068;28;20473;-78
2021/08/19 12:14:54;;;;;;;5.38;4.22;;;22.60;99.90;;;;;;4972915;28;20525;-78
2021/08/19 12:17:22;;;;;;;5.60;3.58;;;22.60;99.90;;;;;;4972616;28;20146;-78
2021/08/19 12:20:09;;;;;;;5.38;3.70;;;22.40;99.90;;;;;;4972611;28;20134;-78
2021/08/19 12:22:36;;;;;;;4.80;3.58;;;22.40;99.90;;;;;;4972288;28;20082;-78
2021/08/19 12:25:14;;;;;;;6.05;4.13;;;22.30;99.90;;;;;;4972385;28;20140;-77
2021/08/19 12:27:41;;;;;;;7.28;3.90;;;22.20;99.90;;;;;;4972908;28;20146;-78
2021/08/19 12:30:09;;;;;;;5.82;3.30;;;22.20;99.90;;;;;;4974779;28;20398;-78
2021/08/19 12:32:37;;;;;;;4.47;3.50;;;22.20;99.90;;;;;;4973307;28;20053;-78
2021/08/19 12:35:06;;;;;;;6.53;3.78;;;22.20;99.90;;;;;;4972610;28;20082;-76
2021/08/19 12:37:34;;;;;;;7.05;3.78;;;22.10;99.90;;;;;;4972379;28;20129;-76
2021/08/19 12:40:10;;;;;;;5.75;3.88;;;22.30;99.90;;;;;;4972552;28;20055;-77
2021/08/19 12:42:38;;;;;;;8.85;4.30;;;22.30;99.90;;;;;;4972276;28;20166;-78
2021/08/19 12:45:08;;;;;;;6.13;4.05;;;22.30;99.90;;;;;;4972240;28;20046;-76
2021/08/19 12:47:37;;;;;;;4.78;3.70;;;22.40;99.90;;;;;;4972257;28;20101;-77